Friday, January 19, 2018, 10:29 PM EST
Back to Local

KRDG, Reading Regional Airport

Location: Reading, PA, United States Lat: 40.367
Local Time: 10:29 PM EST ( 3:29 GMT) Lon: -75.967
Time Zone: US/Eastern Elev: 344 ft

Show me the last for .
Show Coded

Time T Td Feel RH Dir Speed Gust Alt SLP Vis Weather Sky Remarks
2018-01-19 21:54 29 21 - 71 - Calm - 29.99 30.01 10 CLR None
2018-01-19 20:54 33 22 - 63 - Calm - 29.99 30.01 10 CLR None
2018-01-19 19:54 34 22 28 60 220° 7 - 29.99 30.02 10 CLR None
2018-01-19 18:54 36 21 33 54 180° 3 - 29.99 30.02 10 CLR 6-hr Min Temp (7pm): 33.1°F
6-hr Max Temp (7pm): 39.9°F
2018-01-19 17:54 36 22 31 56 240° 6 - 29.99 30.02 10 CLR None
2018-01-19 16:54 38 23 33 54 210° 7 - 29.99 30.01 10 CLR None
2018-01-19 15:54 39 23 32 52 210° 10 - 29.99 30.01 10 CLR None
2018-01-19 14:54 38 23 33 54 220° 6 - 29.99 30.01 10 CLR None
2018-01-19 13:54 36 21 30 54 220° 8 - 30.01 30.03 10 CLR None
2018-01-19 12:54 37 18 29 45 260° 12 - 30.02 30.04 10 CLR 6-hr Min Temp (1pm): 12.0°F
6-hr Max Temp (1pm): 37.0°F
2018-01-19 11:54 37 18 29 45 250° 12 - 30.04 30.07 10 CLR None
2018-01-19 10:54 31 20 - 63 - Calm - 30.08 30.11 10 CLR None
2018-01-19 09:54 25 19 - 77 - Calm - 30.09 30.12 8 CLR None
2018-01-19 08:54 19 15 - 84 - Calm - 30.08 30.11 10 CLR None
2018-01-19 07:54 15 12 - 87 - Calm - 30.07 30.09 10 CLR None
2018-01-19 06:54 12 10 - 91 - Calm - 30.07 30.10 10 CLR 6-hr Min Temp (7am): 10.9°F
6-hr Max Temp (7am): 19.9°F
2018-01-19 05:54 13 10 - 87 - Calm - 30.06 30.09 10 CLR None
2018-01-19 04:54 14 11 - 87 - Calm - 30.05 30.08 10 CLR None
2018-01-19 03:54 14 11 - 87 - Calm - 30.05 30.08 10 CLR None
2018-01-19 02:54 17 13 - 83 - Calm - 30.05 30.08 10 CLR None
2018-01-19 01:54 17 13 12 83 210° 3 - 30.03 30.06 10 CLR None
2018-01-19 00:54 17 13 - 83 - Calm - 30.04 - 10 CLR 6-hr Min Temp (1am): 15.1°F
6-hr Max Temp (1am): 28.9°F
2018-01-18 23:54 19 13 - 76 - - - 30.06 - 10 CLR None
2018-01-18 22:54 22 13 - 67 - Calm - 30.08 30.11 10 CLR None

Support USWX by starting your Amazon purchase here.